Time;durP1;ratioP1;P1;durP2;ratioP2;P2;SDS_P1;SDS_P2;PMS_P1;PMS_P2;Temp;Humidity;BMP_temperature;BMP_pressure;BME280_temperature;BME280_humidity;BME280_pressure;Samples;Min_cycle;Max_cycle;Signal;HPM_P1;HPM_P2
2021/10/21 06:49:16;;;;;;;6.95;1.08;;;18.40;74.70;;;;;;5596232;24;20190;-70
2021/10/21 06:51:42;;;;;;;6.35;0.73;;;18.40;74.50;;;;;;4757414;30;20060;-70
2021/10/21 06:54:07;;;;;;;5.07;1.00;;;18.30;74.50;;;;;;4773413;30;20066;-69
2021/10/21 06:56:33;;;;;;;5.78;0.82;;;18.30;74.80;;;;;;4773397;30;20475;-70
2021/10/21 06:58:59;;;;;;;7.53;0.85;;;18.30;74.60;;;;;;4773255;30;20052;-71
2021/10/21 07:01:25;;;;;;;6.03;1.00;;;18.30;74.90;;;;;;4773231;30;20410;-70
2021/10/21 07:03:51;;;;;;;6.30;0.82;;;18.30;75.10;;;;;;4778199;30;20127;-70
2021/10/21 07:06:17;;;;;;;30.70;2.22;;;18.20;75.10;;;;;;4776086;30;20444;-69
2021/10/21 07:08:42;;;;;;;6.05;0.75;;;18.10;71.50;;;;;;4773257;30;20134;-70
2021/10/21 07:11:09;;;;;;;8.20;1.15;;;17.90;73.20;;;;;;4757749;30;20055;-70
2021/10/21 07:13:36;;;;;;;25.17;2.95;;;18.00;74.50;;;;;;4768544;30;20063;-72
2021/10/21 07:16:04;;;;;;;12.45;1.33;;;17.90;75.40;;;;;;4765359;30;20067;-72
2021/10/21 07:18:30;;;;;;;11.68;1.52;;;18.00;75.50;;;;;;4755029;30;20209;-73
2021/10/21 07:20:57;;;;;;;23.05;2.47;;;17.90;74.80;;;;;;4755293;30;20142;-73
2021/10/21 07:23:23;;;;;;;8.85;1.13;;;18.00;75.60;;;;;;4755378;30;20341;-73
2021/10/21 07:25:49;;;;;;;14.70;1.58;;;18.00;75.80;;;;;;4761592;30;20062;-74
2021/10/21 07:28:14;;;;;;;17.05;1.42;;;18.10;75.60;;;;;;4780501;30;20079;-76
2021/10/21 07:30:40;;;;;;;10.63;1.00;;;18.20;75.50;;;;;;4772821;30;20140;-75
2021/10/21 07:33:06;;;;;;;13.38;0.95;;;18.30;75.30;;;;;;4756764;30;20138;-72
2021/10/21 07:35:32;;;;;;;13.40;1.75;;;18.40;75.10;;;;;;4755407;30;20060;-74
2021/10/21 07:38:01;;;;;;;20.27;1.35;;;18.50;74.50;;;;;;4754934;30;20055;-76
2021/10/21 07:40:27;;;;;;;14.20;2.15;;;18.60;74.20;;;;;;4739598;30;20066;-73
2021/10/21 07:42:53;;;;;;;6.38;0.93;;;18.60;73.70;;;;;;4754819;30;20348;-74
2021/10/21 07:45:19;;;;;;;13.40;1.80;;;18.70;73.80;;;;;;4770788;30;20487;-75
2021/10/21 07:47:45;;;;;;;15.77;1.65;;;18.80;73.60;;;;;;4772302;30;20060;-75
2021/10/21 07:50:11;;;;;;;11.15;1.60;;;18.90;73.80;;;;;;4757728;30;20511;-74
2021/10/21 07:52:38;;;;;;;14.10;0.90;;;18.90;73.80;;;;;;4754659;30;20060;-72
2021/10/21 07:55:08;;;;;;;7.60;1.17;;;19.00;73.80;;;;;;4754540;30;20129;-72
2021/10/21 07:57:34;;;;;;;8.88;1.08;;;19.00;73.70;;;;;;4738956;30;20060;-72
2021/10/21 08:00:00;;;;;;;10.90;1.40;;;19.10;73.30;;;;;;4754952;30;20056;-71
2021/10/21 08:02:26;;;;;;;7.70;1.67;;;19.10;73.30;;;;;;4738750;30;20059;-71
2021/10/21 08:04:52;;;;;;;9.77;1.30;;;19.10;73.30;;;;;;4739107;30;20372;-73
2021/10/21 08:07:18;;;;;;;12.38;1.20;;;19.10;73.40;;;;;;4739188;30;20117;-73
2021/10/21 08:09:44;;;;;;;12.90;1.50;;;19.10;73.30;;;;;;4754588;30;20084;-70
2021/10/21 08:12:10;;;;;;;11.38;1.00;;;19.00;72.00;;;;;;4754262;30;20091;-74
2021/10/21 08:14:36;;;;;;;10.80;1.40;;;18.90;72.90;;;;;;4754118;30;20506;-72
2021/10/21 08:17:03;;;;;;;13.80;2.00;;;18.90;73.30;;;;;;4738880;30;20474;-72
2021/10/21 08:19:29;;;;;;;8.35;1.45;;;18.80;73.50;;;;;;4754181;30;20211;-72
2021/10/21 08:21:56;;;;;;;11.93;1.05;;;18.70;71.40;;;;;;4771083;30;20056;-73
2021/10/21 08:24:23;;;;;;;11.90;2.28;;;18.60;72.50;;;;;;4772233;30;20372;-73
2021/10/21 08:26:53;;;;;;;8.98;0.93;;;18.60;73.50;;;;;;4756389;30;20511;-73
2021/10/21 08:29:22;;;;;;;15.48;1.85;;;18.60;73.60;;;;;;4771869;30;20054;-72
2021/10/21 08:31:48;;;;;;;7.85;0.90;;;18.60;73.50;;;;;;4771475;30;20475;-72
2021/10/21 08:34:14;;;;;;;13.15;1.02;;;18.60;73.60;;;;;;4771972;30;20056;-71
2021/10/21 08:36:39;;;;;;;7.47;1.33;;;18.70;73.50;;;;;;4772054;30;20201;-70
2021/10/21 08:39:07;;;;;;;11.43;1.45;;;18.70;73.30;;;;;;4771974;30;20547;-70
2021/10/21 08:41:33;;;;;;;9.10;0.93;;;18.70;73.40;;;;;;4771957;30;20070;-73
2021/10/21 08:43:59;;;;;;;9.48;1.15;;;18.70;73.10;;;;;;4771845;30;20220;-70
2021/10/21 08:46:27;;;;;;;11.27;1.90;;;18.70;72.90;;;;;;4771864;30;20090;-73
2021/10/21 08:49:00;;;;;;;9.45;0.88;;;18.60;72.80;;;;;;4756266;30;20058;-72
2021/10/21 08:51:27;;;;;;;12.93;1.25;;;18.60;72.90;;;;;;4771284;30;20072;-72
2021/10/21 08:53:53;;;;;;;9.60;1.20;;;18.60;72.90;;;;;;4756311;30;20065;-71
2021/10/21 08:56:26;;;;;;;12.43;1.40;;;18.60;73.20;;;;;;4772315;30;20124;-72
2021/10/21 08:58:53;;;;;;;10.90;1.83;;;18.60;73.30;;;;;;4755864;30;20055;-72
2021/10/21 09:01:20;;;;;;;5.43;0.95;;;18.60;73.50;;;;;;4771774;30;20044;-71
2021/10/21 09:04:00;;;;;;;11.70;1.77;;;18.50;73.70;;;;;;4771422;30;20138;-71
2021/10/21 09:09:43;;;;;;;18.65;2.17;;;18.50;73.80;;;;;;4771851;30;20056;-72
2021/10/21 09:12:17;;;;;;;11.82;1.35;;;18.50;74.30;;;;;;4752481;30;20078;-75
2021/10/21 09:14:52;;;;;;;13.00;1.00;;;18.50;74.40;;;;;;4756816;30;20097;-74
2021/10/21 09:17:25;;;;;;;10.43;1.70;;;18.50;74.20;;;;;;4744757;30;20070;-74
2021/10/21 09:19:51;;;;;;;10.48;1.20;;;18.50;74.30;;;;;;4775148;30;20059;-72
2021/10/21 09:22:25;;;;;;;8.77;1.23;;;18.40;74.50;;;;;;4774646;30;20064;-73
2021/10/21 09:24:53;;;;;;;13.00;1.23;;;18.40;74.60;;;;;;4775029;30;20066;-75
2021/10/21 09:27:25;;;;;;;10.43;1.45;;;18.40;74.90;;;;;;4759330;30;20052;-73
2021/10/21 09:29:53;;;;;;;14.52;1.67;;;18.40;75.20;;;;;;4759074;30;20102;-72
2021/10/21 09:32:21;;;;;;;9.15;1.20;;;18.40;75.30;;;;;;4759777;30;20079;-73
2021/10/21 09:34:51;;;;;;;13.02;1.83;;;18.40;75.40;;;;;;4775105;30;20058;-73
2021/10/21 09:37:20;;;;;;;19.02;1.42;;;18.30;75.50;;;;;;4774670;30;20055;-74
2021/10/21 09:39:49;;;;;;;18.17;2.40;;;18.30;75.60;;;;;;4759054;30;20064;-71
2021/10/21 09:42:15;;;;;;;12.68;1.17;;;18.30;75.40;;;;;;4774313;30;20128;-73
2021/10/21 09:44:42;;;;;;;15.85;1.52;;;18.30;75.10;;;;;;4774675;30;20055;-73
2021/10/21 09:47:25;;;;;;;9.52;1.20;;;18.30;74.90;;;;;;4758877;30;20380;-73
2021/10/21 09:49:55;;;;;;;8.68;1.52;;;18.30;74.70;;;;;;4774638;30;20075;-72
2021/10/21 09:52:24;;;;;;;12.80;1.25;;;18.40;75.10;;;;;;4774538;30;20055;-72
2021/10/21 09:54:51;;;;;;;8.45;1.13;;;18.40;75.10;;;;;;4774242;30;20345;-72
2021/10/21 09:57:17;;;;;;;12.27;1.60;;;18.30;75.10;;;;;;4774631;30;20055;-71
2021/10/21 09:59:45;;;;;;;6.35;1.15;;;18.40;75.70;;;;;;4774627;30;20056;-72
2021/10/21 10:02:17;;;;;;;8.07;0.90;;;18.40;75.00;;;;;;4774822;30;20172;-72
2021/10/21 10:05:04;;;;;;;7.45;1.23;;;18.40;75.00;;;;;;4774093;30;20055;-72
2021/10/21 10:07:35;;;;;;;11.90;1.25;;;18.40;73.90;;;;;;4758970;30;20376;-71
2021/10/21 10:10:05;;;;;;;7.13;1.20;;;18.40;74.90;;;;;;4774339;30;20143;-71
2021/10/21 10:12:35;;;;;;;9.30;1.52;;;18.40;75.10;;;;;;4761053;30;20067;-73
2021/10/21 10:15:02;;;;;;;5.47;0.70;;;18.40;75.20;;;;;;4756136;30;20056;-72
2021/10/21 10:17:29;;;;;;;11.32;1.63;;;18.40;75.10;;;;;;4740656;30;20099;-71
2021/10/21 10:19:56;;;;;;;4.63;1.00;;;18.40;75.10;;;;;;4756240;30;20060;-71
2021/10/21 10:22:39;;;;;;;8.13;1.38;;;18.40;75.20;;;;;;4773717;30;20140;-72
2021/10/21 10:25:19;;;;;;;8.38;1.35;;;18.50;75.10;;;;;;4773987;30;20067;-72
2021/10/21 10:28:04;;;;;;;10.25;1.35;;;18.50;75.30;;;;;;4773987;30;20054;-72
2021/10/21 10:30:47;;;;;;;10.88;1.30;;;18.40;73.00;;;;;;4773537;30;20461;-71
2021/10/21 10:33:38;;;;;;;10.68;1.45;;;18.20;70.80;;;;;;4758225;30;20056;-71
2021/10/21 10:36:30;;;;;;;14.75;1.90;;;18.10;74.10;;;;;;4758921;30;20055;-71
2021/10/21 10:39:07;;;;;;;15.07;1.90;;;18.20;74.80;;;;;;4773939;30;20067;-72
2021/10/21 10:41:45;;;;;;;10.82;1.67;;;18.20;74.30;;;;;;4773253;30;20059;-71
2021/10/21 10:44:33;;;;;;;14.63;1.55;;;18.20;73.40;;;;;;4774003;30;20060;-71
2021/10/21 10:47:00;;;;;;;7.13;1.52;;;18.20;72.80;;;;;;4748458;30;20142;-71
2021/10/21 10:49:38;;;;;;;12.13;1.48;;;18.20;73.30;;;;;;4757726;30;20495;-71
2021/10/21 10:52:04;;;;;;;6.35;1.00;;;18.20;72.80;;;;;;4773628;30;20066;-70
2021/10/21 10:54:49;;;;;;;8.35;1.17;;;18.20;73.30;;;;;;4773717;30;20342;-70
2021/10/21 10:57:24;;;;;;;10.75;1.40;;;18.20;72.70;;;;;;4773712;30;20125;-71
2021/10/21 10:59:57;;;;;;;6.95;1.40;;;18.20;73.20;;;;;;4774045;30;20060;-71
2021/10/21 11:02:23;;;;;;;7.80;0.90;;;18.20;73.20;;;;;;4757401;30;20063;-71
2021/10/21 11:04:52;;;;;;;9.38;1.20;;;18.10;73.20;;;;;;4773389;30;20067;-71
2021/10/21 11:07:26;;;;;;;9.85;1.25;;;18.10;73.20;;;;;;4757775;30;20060;-73
2021/10/21 11:09:53;;;;;;;4.03;1.33;;;18.10;73.20;;;;;;4773761;30;20069;-71
2021/10/21 11:12:20;;;;;;;8.02;1.30;;;18.10;73.40;;;;;;4773296;30;20043;-71
2021/10/21 11:14:54;;;;;;;7.35;1.25;;;18.10;73.40;;;;;;4773577;30;20134;-71
2021/10/21 11:17:39;;;;;;;7.85;1.55;;;18.10;73.50;;;;;;4773342;30;20378;-72
2021/10/21 11:20:06;;;;;;;6.97;1.02;;;18.10;73.20;;;;;;4773253;30;20068;-71
2021/10/21 11:22:31;;;;;;;7.57;1.55;;;18.10;73.60;;;;;;4771882;30;20108;-71
2021/10/21 11:25:15;;;;;;;5.22;0.90;;;18.10;73.70;;;;;;4772353;30;20055;-71
2021/10/21 11:27:44;;;;;;;4.97;1.00;;;18.10;73.50;;;;;;4773777;30;20063;-71
2021/10/21 11:30:23;;;;;;;4.30;0.80;;;18.00;73.70;;;;;;4773508;30;20062;-71
2021/10/21 11:32:50;;;;;;;5.07;0.98;;;18.00;73.60;;;;;;4772882;30;20099;-71
2021/10/21 11:35:38;;;;;;;4.63;1.17;;;18.00;73.80;;;;;;4772733;30;20056;-71
2021/10/21 11:38:10;;;;;;;5.40;0.95;;;18.00;73.60;;;;;;4772433;30;20120;-71
2021/10/21 11:40:44;;;;;;;6.07;0.75;;;18.00;73.80;;;;;;4772521;30;20347;-71
2021/10/21 11:43:21;;;;;;;4.00;0.63;;;18.00;73.80;;;;;;4772661;30;20047;-71
2021/10/21 11:45:46;;;;;;;5.18;1.13;;;18.00;73.80;;;;;;4773380;30;20132;-71
2021/10/21 11:48:14;;;;;;;3.30;0.90;;;18.10;73.90;;;;;;4772845;30;20458;-71
2021/10/21 11:50:48;;;;;;;3.55;0.55;;;18.10;73.90;;;;;;4773465;30;20079;-71
2021/10/21 11:53:15;;;;;;;4.70;0.85;;;18.10;73.90;;;;;;4772561;30;20055;-71
2021/10/21 11:55:43;;;;;;;6.13;0.90;;;18.00;73.80;;;;;;4773046;30;20052;-70
2021/10/21 11:58:10;;;;;;;3.42;0.63;;;18.00;73.80;;;;;;4757500;30;20067;-71
2021/10/21 12:00:36;;;;;;;6.82;1.02;;;18.00;73.80;;;;;;4772827;30;20056;-71
2021/10/21 12:03:02;;;;;;;3.92;0.70;;;18.00;73.70;;;;;;4772178;30;20055;-71
2021/10/21 12:05:34;;;;;;;5.15;0.95;;;18.00;73.80;;;;;;4772383;30;20047;-71
2021/10/21 12:08:01;;;;;;;5.25;0.90;;;18.00;73.70;;;;;;4772660;30;20082;-71
2021/10/21 12:10:29;;;;;;;5.65;1.08;;;18.00;73.80;;;;;;4772343;30;20070;-71
2021/10/21 12:12:56;;;;;;;4.15;0.82;;;18.00;73.80;;;;;;4772347;30;20059;-71
2021/10/21 12:15:27;;;;;;;4.85;1.02;;;18.00;73.80;;;;;;4772255;30;20066;-71
2021/10/21 12:17:54;;;;;;;6.40;1.10;;;18.00;73.70;;;;;;4756906;30;20052;-70
2021/10/21 12:20:41;;;;;;;7.55;1.15;;;18.00;73.80;;;;;;4772334;30;20043;-71
2021/10/21 12:23:11;;;;;;;5.30;0.95;;;18.00;73.60;;;;;;4771736;30;20146;-71
2021/10/21 12:25:37;;;;;;;6.65;0.95;;;18.00;73.70;;;;;;4756711;30;20070;-71
2021/10/21 12:28:03;;;;;;;6.03;1.10;;;18.00;73.80;;;;;;4772135;30;20051;-71
2021/10/21 12:30:35;;;;;;;4.32;1.02;;;18.00;73.70;;;;;;4772336;30;20080;-71
2021/10/21 12:33:16;;;;;;;6.18;1.10;;;17.90;73.70;;;;;;4772110;30;20168;-71
2021/10/21 12:35:59;;;;;;;4.78;0.90;;;17.90;73.50;;;;;;4772322;30;20124;-71
2021/10/21 12:38:25;;;;;;;8.45;1.48;;;17.90;73.40;;;;;;4771871;30;20542;-71
2021/10/21 12:41:03;;;;;;;5.47;1.40;;;17.90;73.70;;;;;;4771725;30;20056;-71
2021/10/21 12:43:29;;;;;;;5.38;0.98;;;17.90;73.60;;;;;;4771630;30;20055;-71
2021/10/21 12:46:00;;;;;;;3.30;0.95;;;17.90;73.80;;;;;;4771690;30;20467;-71
2021/10/21 12:48:29;;;;;;;6.18;1.40;;;17.90;73.80;;;;;;4772679;30;20110;-71
2021/10/21 12:51:08;;;;;;;5.60;1.15;;;17.90;73.80;;;;;;4775728;30;20200;-71
2021/10/21 12:53:33;;;;;;;4.57;1.20;;;17.80;73.60;;;;;;4760023;30;20060;-71
2021/10/21 12:56:22;;;;;;;4.57;0.93;;;17.80;73.70;;;;;;4776204;30;20078;-71
2021/10/21 12:58:57;;;;;;;7.50;1.55;;;17.90;73.50;;;;;;4775523;30;20496;-71
2021/10/21 13:01:23;;;;;;;6.45;1.27;;;17.80;73.70;;;;;;4775718;30;20047;-71
2021/10/21 13:03:49;;;;;;;6.57;1.10;;;17.80;73.60;;;;;;4775183;30;20124;-71
2021/10/21 13:06:18;;;;;;;9.23;1.52;;;17.80;73.50;;;;;;4775387;30;20341;-71
2021/10/21 13:08:51;;;;;;;6.13;1.27;;;17.80;73.50;;;;;;4775563;30;20146;-71
2021/10/21 13:11:19;;;;;;;6.72;1.20;;;17.80;73.50;;;;;;4775758;30;20107;-72
2021/10/21 13:13:51;;;;;;;3.97;1.10;;;17.80;73.50;;;;;;4775063;30;20216;-71
2021/10/21 13:16:17;;;;;;;4.78;1.63;;;17.80;73.50;;;;;;4775452;30;20067;-70
2021/10/21 13:18:43;;;;;;;7.20;1.85;;;17.70;73.50;;;;;;4775101;30;20048;-71
2021/10/21 13:21:09;;;;;;;7.90;2.35;;;17.70;73.60;;;;;;4775667;30;20085;-71
2021/10/21 13:23:35;;;;;;;6.15;1.40;;;17.70;73.60;;;;;;4774948;30;20464;-72
2021/10/21 13:26:02;;;;;;;7.07;1.70;;;17.70;73.60;;;;;;4775579;30;20415;-71
2021/10/21 13:28:27;;;;;;;7.07;1.42;;;17.70;73.50;;;;;;4775152;30;20134;-72
2021/10/21 13:30:54;;;;;;;5.72;1.05;;;17.70;73.50;;;;;;4775257;30;20427;-71
2021/10/21 13:33:20;;;;;;;7.15;1.48;;;17.70;73.50;;;;;;4775168;30;20128;-71
2021/10/21 13:35:45;;;;;;;9.93;1.65;;;17.70;73.60;;;;;;4774762;30;20468;-71
2021/10/21 13:38:13;;;;;;;5.18;1.50;;;17.70;73.50;;;;;;4774831;30;20107;-72
2021/10/21 13:40:39;;;;;;;7.05;1.42;;;17.70;73.40;;;;;;4774858;30;20055;-71
2021/10/21 13:43:05;;;;;;;6.25;1.58;;;17.70;73.50;;;;;;4774683;30;20048;-71
2021/10/21 13:45:31;;;;;;;4.55;1.20;;;17.70;73.50;;;;;;4774629;30;20121;-71
2021/10/21 13:47:57;;;;;;;4.65;1.60;;;17.70;73.40;;;;;;4774720;30;20083;-72
2021/10/21 13:50:23;;;;;;;4.72;1.50;;;17.70;73.50;;;;;;4774677;30;20146;-71
2021/10/21 13:52:49;;;;;;;5.35;1.35;;;17.70;73.40;;;;;;4774760;30;20131;-71
2021/10/21 13:55:14;;;;;;;5.63;0.98;;;17.60;73.30;;;;;;4774763;30;20052;-72
2021/10/21 13:57:40;;;;;;;6.13;1.55;;;17.70;73.40;;;;;;4774690;30;20456;-71
2021/10/21 14:00:08;;;;;;;7.65;1.40;;;17.60;73.10;;;;;;4773985;30;20056;-71
2021/10/21 14:02:34;;;;;;;6.45;1.52;;;17.60;73.10;;;;;;4769029;30;20113;-71
2021/10/21 14:04:59;;;;;;;5.63;1.27;;;17.60;73.30;;;;;;4774447;30;20052;-70
2021/10/21 14:07:26;;;;;;;7.22;1.60;;;17.60;73.40;;;;;;4758504;30;20056;-71
2021/10/21 14:09:54;;;;;;;8.20;1.45;;;17.60;73.60;;;;;;4775046;30;20078;-71
2021/10/21 14:12:19;;;;;;;8.60;1.60;;;17.60;73.60;;;;;;4774981;30;20132;-71
2021/10/21 14:14:47;;;;;;;5.85;1.45;;;17.60;73.50;;;;;;4774457;30;20507;-72
2021/10/21 14:17:13;;;;;;;8.30;1.80;;;17.60;73.60;;;;;;4774414;30;20375;-71
2021/10/21 14:19:40;;;;;;;6.63;1.50;;;17.60;73.60;;;;;;4774083;30;20188;-71
2021/10/21 14:22:08;;;;;;;11.15;1.95;;;17.60;73.30;;;;;;4780797;30;20059;-73
2021/10/21 14:24:34;;;;;;;16.40;2.88;;;17.60;73.10;;;;;;4782652;30;20075;-73
2021/10/21 14:27:01;;;;;;;13.63;2.72;;;17.60;71.60;;;;;;4773465;30;20416;-73
2021/10/21 14:29:27;;;;;;;13.63;2.10;;;17.60;71.60;;;;;;4774010;30;20058;-72
2021/10/21 14:31:53;;;;;;;10.25;2.28;;;17.60;71.40;;;;;;4773728;30;20051;-72
2021/10/21 14:34:18;;;;;;;10.10;2.00;;;17.60;71.50;;;;;;4773820;30;20059;-72
2021/10/21 14:36:44;;;;;;;16.20;3.28;;;17.60;71.40;;;;;;4773845;30;20095;-71
2021/10/21 14:39:10;;;;;;;12.68;2.00;;;17.70;71.40;;;;;;4773360;30;20438;-72
2021/10/21 14:41:36;;;;;;;14.60;2.38;;;17.70;71.50;;;;;;4757209;30;20056;-69
2021/10/21 14:44:02;;;;;;;11.00;2.20;;;17.80;71.60;;;;;;4769931;30;20044;-70
2021/10/21 14:46:33;;;;;;;9.38;2.47;;;17.80;71.50;;;;;;4763954;30;20062;-71
2021/10/21 14:48:59;;;;;;;10.57;2.47;;;17.90;71.40;;;;;;4763182;30;20380;-70
2021/10/21 14:51:25;;;;;;;11.85;2.17;;;18.00;71.50;;;;;;4770527;30;20052;-73
2021/10/21 14:53:51;;;;;;;13.75;2.20;;;18.10;71.40;;;;;;4771224;30;20062;-71
2021/10/21 14:56:17;;;;;;;7.70;1.48;;;18.20;71.30;;;;;;4772586;30;20125;-70
2021/10/21 14:58:43;;;;;;;9.05;1.98;;;18.20;71.30;;;;;;4772581;30;20383;-71
2021/10/21 15:01:09;;;;;;;9.77;1.88;;;18.30;71.30;;;;;;4757158;30;20407;-73
2021/10/21 15:03:36;;;;;;;11.25;1.80;;;18.30;71.20;;;;;;4751103;30;20052;-70
2021/10/21 15:06:21;;;;;;;9.77;1.60;;;18.30;71.20;;;;;;4767582;30;20083;-71
2021/10/21 15:09:08;;;;;;;7.18;1.70;;;18.40;71.10;;;;;;4727260;30;20056;-76
2021/10/21 15:22:54;;;;;;;9.60;3.00;;;18.60;72.60;;;;;;4723185;30;19930;-70
2021/10/21 15:25:20;;;;;;;14.25;4.03;;;18.60;72.50;;;;;;4748738;30;20060;-75
2021/10/21 15:27:45;;;;;;;11.82;3.10;;;18.60;72.40;;;;;;4754529;30;20067;-71
2021/10/21 15:30:13;;;;;;;16.10;6.07;;;18.60;72.00;;;;;;4754363;30;20054;-73
2021/10/21 15:32:40;;;;;;;9.65;2.50;;;18.60;72.90;;;;;;4739363;30;20060;-73
2021/10/21 15:35:08;;;;;;;11.15;2.60;;;18.60;71.50;;;;;;4754366;30;20060;-74
2021/10/21 15:37:36;;;;;;;10.15;2.83;;;18.60;70.60;;;;;;4738998;30;20056;-71
2021/10/21 15:40:03;;;;;;;11.18;2.10;;;18.50;70.40;;;;;;4754063;30;20384;-71
2021/10/21 15:42:32;;;;;;;9.73;2.67;;;18.40;70.40;;;;;;4738843;30;20098;-72
2021/10/21 15:45:16;;;;;;;13.50;3.10;;;18.50;70.50;;;;;;4739027;30;20538;-74
2021/10/21 15:47:51;;;;;;;14.23;2.60;;;18.40;70.70;;;;;;4754763;30;20472;-72
2021/10/21 16:14:45;;;;;;;10.77;2.22;;;18.40;73.00;;;;;;4772208;30;20091;-73
2021/10/21 16:17:14;;;;;;;16.20;2.65;;;18.40;73.30;;;;;;4772219;30;20047;-73
2021/10/21 16:19:41;;;;;;;11.20;2.65;;;18.40;73.40;;;;;;4772435;30;20060;-73
2021/10/21 16:22:22;;;;;;;16.38;2.67;;;18.40;73.70;;;;;;4772244;30;20095;-72
2021/10/21 16:24:55;;;;;;;9.40;2.03;;;18.40;73.80;;;;;;4771622;30;20052;-72
2021/10/21 16:27:24;;;;;;;14.77;2.43;;;18.40;73.70;;;;;;4771941;30;20055;-73
2021/10/21 16:29:51;;;;;;;12.85;2.20;;;18.30;73.60;;;;;;4772286;30;20344;-72
2021/10/21 16:32:17;;;;;;;21.38;2.65;;;18.30;73.50;;;;;;4756552;30;20091;-72
2021/10/21 16:34:43;;;;;;;10.68;2.03;;;18.30;73.60;;;;;;4772153;30;20098;-73
2021/10/21 16:37:12;;;;;;;15.25;2.47;;;18.30;73.60;;;;;;4772794;30;20456;-73
2021/10/21 16:39:38;;;;;;;14.30;2.55;;;18.30;73.60;;;;;;4766581;30;20428;-73
2021/10/21 16:42:04;;;;;;;13.38;3.15;;;18.20;73.40;;;;;;4768582;30;20083;-74
2021/10/21 16:44:30;;;;;;;12.02;1.92;;;18.20;73.30;;;;;;4760151;30;20055;-73
2021/10/21 16:46:56;;;;;;;14.77;2.47;;;18.20;73.40;;;;;;4754576;30;20059;-73
2021/10/21 16:49:22;;;;;;;12.45;2.15;;;18.20;73.50;;;;;;4753825;30;20063;-75
2021/10/21 16:51:48;;;;;;;13.20;1.95;;;18.20;72.60;;;;;;4753310;30;20430;-70
2021/10/21 16:54:14;;;;;;;15.00;1.85;;;18.20;73.20;;;;;;4754271;30;20433;-72
2021/10/21 16:56:39;;;;;;;15.00;2.25;;;18.10;73.00;;;;;;4749003;30;20066;-73
2021/10/21 16:59:05;;;;;;;11.70;2.35;;;18.10;73.70;;;;;;4767517;30;20052;-71
2021/10/21 17:01:31;;;;;;;11.52;2.15;;;18.10;74.10;;;;;;4754142;30;20381;-72
2021/10/21 17:03:57;;;;;;;13.02;1.92;;;18.20;74.10;;;;;;4754253;30;20040;-71
2021/10/21 17:06:22;;;;;;;13.15;2.35;;;18.20;74.10;;;;;;4738544;30;20358;-72
2021/10/21 17:08:50;;;;;;;9.82;1.67;;;18.20;74.20;;;;;;4738450;30;20457;-71
2021/10/21 17:11:16;;;;;;;12.20;2.08;;;18.20;74.20;;;;;;4753122;30;20071;-72
2021/10/21 17:13:42;;;;;;;10.27;1.73;;;18.20;74.30;;;;;;4754275;30;20056;-72
2021/10/21 17:16:09;;;;;;;10.00;2.38;;;18.20;74.40;;;;;;4753538;30;20052;-71
2021/10/21 17:18:36;;;;;;;12.52;2.65;;;18.20;74.50;;;;;;4738292;30;20048;-72
2021/10/21 17:21:03;;;;;;;10.60;1.90;;;18.20;74.00;;;;;;4753865;30;20468;-73
2021/10/21 17:23:31;;;;;;;8.55;1.90;;;18.20;74.00;;;;;;4753759;30;20342;-71
2021/10/21 17:25:58;;;;;;;12.48;2.40;;;18.20;73.80;;;;;;4753896;30;20060;-71
2021/10/21 17:28:28;;;;;;;11.73;2.05;;;18.20;73.60;;;;;;4754164;30;20059;-71
2021/10/21 17:30:57;;;;;;;16.30;1.88;;;18.10;72.70;;;;;;4738378;30;20052;-72
2021/10/21 17:33:22;;;;;;;10.05;1.73;;;18.10;73.20;;;;;;4738112;30;20118;-73
2021/10/21 17:35:48;;;;;;;6.72;1.40;;;18.10;73.30;;;;;;4739237;30;20063;-71
2021/10/21 17:38:14;;;;;;;10.65;2.38;;;18.10;73.40;;;;;;4757340;30;20140;-71
2021/10/21 17:40:41;;;;;;;11.20;1.75;;;18.10;73.40;;;;;;4756368;30;20454;-71
2021/10/21 17:43:07;;;;;;;7.97;1.60;;;18.10;73.20;;;;;;4757496;30;20044;-71
2021/10/21 17:45:33;;;;;;;9.20;1.60;;;18.10;73.40;;;;;;4756997;30;20062;-72
2021/10/21 17:47:59;;;;;;;6.18;1.25;;;18.00;73.00;;;;;;4757085;30;20077;-73
2021/10/21 17:50:24;;;;;;;12.90;2.05;;;18.00;73.20;;;;;;4765716;30;20064;-73
2021/10/21 17:52:50;;;;;;;5.18;1.60;;;18.10;73.40;;;;;;4775161;30;20122;-72
2021/10/21 17:55:18;;;;;;;12.73;1.77;;;18.00;73.40;;;;;;4774913;30;20353;-72
2021/10/21 17:57:45;;;;;;;7.45;1.60;;;18.00;73.40;;;;;;4767974;30;20437;-72
2021/10/21 18:00:14;;;;;;;7.43;1.63;;;17.90;73.10;;;;;;4756829;30;20059;-72
2021/10/21 18:02:40;;;;;;;6.68;1.58;;;18.00;73.10;;;;;;4756904;30;20060;-71
2021/10/21 18:05:07;;;;;;;6.20;1.80;;;17.90;73.10;;;;;;4741107;30;20056;-72
2021/10/21 18:07:32;;;;;;;5.05;1.40;;;17.90;73.10;;;;;;4756662;30;20071;-73
2021/10/21 18:09:58;;;;;;;8.63;1.67;;;17.90;73.10;;;;;;4755742;30;20052;-72
2021/10/21 18:12:24;;;;;;;8.73;1.80;;;17.90;72.90;;;;;;4739474;30;20068;-72
2021/10/21 18:14:51;;;;;;;7.20;1.55;;;17.80;72.70;;;;;;4746220;30;20357;-71
2021/10/21 18:17:17;;;;;;;5.50;1.27;;;17.70;73.00;;;;;;4740819;30;20129;-71
2021/10/21 18:19:43;;;;;;;6.05;1.67;;;17.70;73.40;;;;;;4756222;30;20080;-71
2021/10/21 18:22:09;;;;;;;7.80;1.67;;;17.60;73.50;;;;;;4756404;30;20110;-72
2021/10/21 18:24:35;;;;;;;8.88;1.80;;;17.60;73.70;;;;;;4770455;30;20409;-72
2021/10/21 18:27:01;;;;;;;7.22;1.60;;;17.60;73.80;;;;;;4745147;30;20192;-72
2021/10/21 18:29:27;;;;;;;7.07;1.77;;;17.40;73.80;;;;;;4758749;30;20060;-72
2021/10/21 18:31:55;;;;;;;7.97;1.50;;;17.40;74.10;;;;;;4749871;30;20069;-72
2021/10/21 18:34:22;;;;;;;8.40;1.52;;;17.30;73.90;;;;;;4739317;30;20103;-72
2021/10/21 18:36:48;;;;;;;7.43;1.48;;;17.30;74.00;;;;;;4755620;30;20474;-72
2021/10/21 18:39:15;;;;;;;7.38;1.42;;;17.40;74.20;;;;;;4755672;30;20070;-73
2021/10/21 18:41:42;;;;;;;10.25;1.73;;;17.40;74.10;;;;;;4759710;30;20055;-72
2021/10/21 18:44:14;;;;;;;5.68;1.10;;;17.50;74.00;;;;;;4746711;30;20111;-73
2021/10/21 18:46:48;;;;;;;8.50;1.50;;;17.50;73.80;;;;;;4751785;30;20060;-71
2021/10/21 18:49:16;;;;;;;6.75;1.35;;;17.60;73.70;;;;;;4772689;30;20059;-71
2021/10/21 18:51:45;;;;;;;6.18;1.35;;;17.60;73.70;;;;;;4747519;30;20143;-73
2021/10/21 18:54:11;;;;;;;7.35;1.92;;;17.60;73.60;;;;;;4738088;30;20477;-73
2021/10/21 18:56:38;;;;;;;5.70;1.55;;;17.60;73.50;;;;;;4754900;30;20469;-71
2021/10/21 18:59:04;;;;;;;7.68;1.65;;;17.60;73.50;;;;;;4759116;30;20131;-72
2021/10/21 19:01:31;;;;;;;7.95;2.17;;;17.70;73.50;;;;;;4753277;30;20051;-70
2021/10/21 19:03:58;;;;;;;7.43;1.38;;;17.70;73.40;;;;;;4754234;30;20056;-71
2021/10/21 19:06:24;;;;;;;7.18;1.50;;;17.70;73.30;;;;;;4754524;30;20513;-70
2021/10/21 19:08:51;;;;;;;9.15;1.60;;;17.80;73.20;;;;;;4754604;30;20048;-70
2021/10/21 19:11:21;;;;;;;10.50;1.63;;;17.80;73.10;;;;;;4754680;30;20059;-69
2021/10/21 19:13:48;;;;;;;10.73;1.92;;;17.80;73.00;;;;;;4754127;30;20094;-70
2021/10/21 19:16:15;;;;;;;8.32;1.27;;;17.80;73.00;;;;;;4754845;30;20052;-71
2021/10/21 19:18:42;;;;;;;8.43;1.70;;;17.80;72.70;;;;;;4754432;30;20095;-71
